Time;durP1;ratioP1;P1;durP2;ratioP2;P2;SDS_P1;SDS_P2;PMS_P1;PMS_P2;Temp;Humidity;BMP_temperature;BMP_pressure;BME280_temperature;BME280_humidity;BME280_pressure;Samples;Min_cycle;Max_cycle;Signal;HPM_P1;HPM_P2
2023/03/09 00:01:54;;;;;;;17.80;10.70;;;;;;;7.37;66.45;99815.86;107391;1255;72765;-80
2023/03/09 00:04:23;;;;;;;16.80;9.90;;;;;;;7.41;66.60;99812.27;107234;1256;70426;-82
2023/03/09 00:06:52;;;;;;;18.40;11.30;;;;;;;7.47;65.84;99808.61;107353;1244;74440;-83
2023/03/09 00:09:21;;;;;;;16.40;10.60;;;;;;;7.52;66.01;99808.69;107173;1256;60947;-82
2023/03/09 00:11:50;;;;;;;17.80;11.30;;;;;;;7.56;65.41;99804.12;107100;1253;62055;-82
2023/03/09 00:14:24;;;;;;;18.70;10.50;;;;;;;7.59;65.63;99797.48;106938;1256;74097;-80
2023/03/09 00:16:53;;;;;;;16.80;11.50;;;;;;;7.60;65.53;99789.03;107297;1246;71837;-80
2023/03/09 00:19:26;;;;;;;17.70;11.00;;;;;;;7.65;65.11;99784.48;107263;1254;69085;-81
2023/03/09 00:21:57;;;;;;;18.10;11.20;;;;;;;7.70;64.78;99778.98;107212;1248;75081;-81
2023/03/09 00:24:28;;;;;;;19.70;11.80;;;;;;;7.65;65.08;99768.04;107115;1244;59930;-85
2023/03/09 00:27:00;;;;;;;18.00;11.40;;;;;;;7.67;65.18;99775.91;107151;1245;61314;-79
2023/03/09 00:29:31;;;;;;;16.00;11.50;;;;;;;7.63;65.45;99775.87;107076;1251;73185;-79
2023/03/09 00:32:00;;;;;;;15.90;10.20;;;;;;;7.60;65.49;99779.56;107038;1244;72583;-81
2023/03/09 00:34:29;;;;;;;17.20;10.90;;;;;;;7.58;65.63;99776.55;107148;1245;70045;-80
2023/03/09 00:36:58;;;;;;;17.10;10.70;;;;;;;7.56;65.70;99773.10;107066;1249;65535;-80
2023/03/09 00:39:27;;;;;;;15.30;10.20;;;;;;;7.54;65.54;99769.55;107211;1245;59050;-80
2023/03/09 00:41:57;;;;;;;19.60;10.30;;;;;;;7.57;65.49;99761.19;107120;1242;58259;-80
2023/03/09 00:44:26;;;;;;;19.90;11.40;;;;;;;7.59;65.57;99749.42;107137;1247;73512;-81
2023/03/09 00:46:54;;;;;;;18.80;10.30;;;;;;;7.61;65.42;99746.91;107398;1247;71740;-81
2023/03/09 00:49:24;;;;;;;17.00;10.30;;;;;;;7.60;65.55;99744.02;107545;1245;70933;-81
2023/03/09 00:51:52;;;;;;;14.20;9.80;;;;;;;7.59;65.64;99743.73;107441;1244;74240;-84
2023/03/09 00:54:22;;;;;;;11.40;7.00;;;;;;;7.65;65.02;99734.84;107381;1246;60997;-85
2023/03/09 00:56:52;;;;;;;8.30;6.70;;;;;;;7.76;64.30;99733.80;107559;1256;61142;-83
2023/03/09 00:59:20;;;;;;;8.90;6.00;;;;;;;7.87;63.91;99735.58;107824;1255;73946;-83
2023/03/09 01:01:49;;;;;;;7.70;5.40;;;;;;;8.04;63.26;99731.64;107624;1245;72805;-83
2023/03/09 01:04:19;;;;;;;9.60;5.50;;;;;;;8.19;62.80;99734.13;107203;1256;72088;-83
2023/03/09 01:06:47;;;;;;;6.90;4.90;;;;;;;8.34;61.87;99730.70;107230;1256;74125;-81
2023/03/09 01:09:17;;;;;;;8.10;5.30;;;;;;;8.53;60.26;99728.92;107501;1246;59048;-82
2023/03/09 01:11:46;;;;;;;8.30;4.80;;;;;;;8.66;59.97;99727.82;107325;1254;57482;-82
2023/03/09 01:14:16;;;;;;;7.40;4.30;;;;;;;8.73;59.75;99716.30;107318;1246;63055;-82
2023/03/09 01:16:45;;;;;;;7.50;4.30;;;;;;;8.88;59.12;99713.58;107341;1245;70830;-85
2023/03/09 01:19:14;;;;;;;6.90;4.30;;;;;;;9.04;58.35;99711.41;107342;1246;70215;-83
2023/03/09 01:21:43;;;;;;;6.20;4.10;;;;;;;9.16;57.71;99713.69;107278;1255;72317;-83
2023/03/09 01:24:11;;;;;;;7.70;4.20;;;;;;;9.31;57.07;99710.16;107320;1248;60753;-82
2023/03/09 01:26:40;;;;;;;6.20;3.70;;;;;;;9.45;56.18;99712.14;107489;1245;58384;-82
2023/03/09 01:29:09;;;;;;;7.40;4.50;;;;;;;9.56;55.68;99708.81;107439;1252;62187;-80
2023/03/09 01:31:38;;;;;;;7.70;4.30;;;;;;;9.63;55.60;99709.60;107308;1245;70894;-80
2023/03/09 01:34:09;;;;;;;6.70;3.80;;;;;;;9.67;55.14;99704.95;107347;1245;60735;-79
2023/03/09 01:36:40;;;;;;;7.90;4.50;;;;;;;9.69;54.99;99706.17;107328;1244;63243;-82
2023/03/09 01:39:09;;;;;;;5.00;3.50;;;;;;;9.70;55.08;99711.08;107337;1244;60170;-83
2023/03/09 01:41:38;;;;;;;7.10;4.50;;;;;;;9.74;54.61;99711.45;107302;1249;59112;-82
2023/03/09 01:44:13;;;;;;;8.50;4.40;;;;;;;9.79;54.51;99706.56;107325;1244;72704;-83
2023/03/09 01:46:54;;;;;;;7.00;4.70;;;;;;;9.78;54.38;99702.05;107296;1245;72538;-83
2023/03/09 01:49:31;;;;;;;7.50;4.70;;;;;;;9.71;54.73;99699.89;107279;1253;70192;-83
2023/03/09 01:52:29;;;;;;;8.20;4.80;;;;;;;9.65;54.91;99697.09;107203;1249;63778;-83
2023/03/09 01:55:05;;;;;;;11.20;5.50;;;;;;;9.59;55.34;99689.29;107270;1246;57800;-83
2023/03/09 01:57:59;;;;;;;7.60;4.40;;;;;;;9.55;55.55;99687.85;107332;1245;58328;-83
2023/03/09 02:00:30;;;;;;;6.10;4.10;;;;;;;9.57;55.22;99688.57;107285;1245;62106;-83
2023/03/09 02:03:12;;;;;;;5.00;3.80;;;;;;;9.58;55.22;99686.71;107262;1245;71374;-83
2023/03/09 02:05:48;;;;;;;7.30;4.70;;;;;;;9.68;54.75;99679.16;107326;1245;60241;-82
2023/03/09 02:08:20;;;;;;;8.20;4.60;;;;;;;9.72;54.74;99673.60;107334;1256;63272;-82
2023/03/09 02:11:00;;;;;;;5.60;4.60;;;;;;;9.73;55.06;99670.34;107223;1248;60805;-83
2023/03/09 02:13:40;;;;;;;5.80;4.20;;;;;;;9.71;55.08;99667.92;107217;1244;61297;-82
2023/03/09 02:16:09;;;;;;;8.50;5.00;;;;;;;9.69;54.91;99669.77;107303;1246;73308;-85
2023/03/09 02:18:39;;;;;;;6.60;4.60;;;;;;;9.68;54.69;99660.19;107361;1255;61998;-83
2023/03/09 02:21:28;;;;;;;8.40;4.70;;;;;;;9.65;54.82;99657.83;107336;1245;60791;-84
2023/03/09 02:24:16;;;;;;;6.90;5.20;;;;;;;9.62;54.70;99658.79;107322;1244;64863;-83
2023/03/09 02:26:55;;;;;;;8.20;5.40;;;;;;;9.66;54.70;99655.63;107443;1245;57601;-82
2023/03/09 02:29:25;;;;;;;9.90;5.20;;;;;;;9.64;54.83;99659.30;107437;1245;59110;-83
2023/03/09 02:31:54;;;;;;;7.90;4.60;;;;;;;9.63;54.59;99663.20;107278;1248;72894;-83
2023/03/09 02:34:23;;;;;;;7.80;4.90;;;;;;;9.66;54.36;99662.27;107270;1251;62238;-82
2023/03/09 02:36:52;;;;;;;7.10;4.90;;;;;;;9.62;54.58;99664.86;107473;1255;69663;-81
2023/03/09 02:39:37;;;;;;;9.20;5.00;;;;;;;9.65;54.50;99667.42;107348;1256;63036;-85
2023/03/09 02:42:06;;;;;;;9.50;5.40;;;;;;;9.63;54.73;99667.55;107395;1244;59146;-84
2023/03/09 02:44:36;;;;;;;6.50;4.90;;;;;;;9.57;55.10;99660.92;107284;1245;61078;-84
2023/03/09 02:47:15;;;;;;;7.00;4.70;;;;;;;9.53;54.93;99664.21;107171;1245;73348;-83
2023/03/09 02:49:43;;;;;;;6.80;4.70;;;;;;;9.56;54.67;99660.84;107228;1256;62350;-83
2023/03/09 02:52:13;;;;;;;6.80;4.80;;;;;;;9.54;54.83;99659.74;107315;1256;59259;-81
2023/03/09 02:54:43;;;;;;;6.30;5.20;;;;;;;9.52;55.16;99655.64;107471;1246;72902;-85
2023/03/09 02:57:13;;;;;;;6.50;5.50;;;;;;;9.49;55.22;99655.54;107438;1255;61684;-87
2023/03/09 02:59:41;;;;;;;10.10;4.80;;;;;;;9.46;55.16;99650.23;107287;1256;60747;-82
2023/03/09 03:02:11;;;;;;;7.00;4.70;;;;;;;9.50;54.69;99644.62;107438;1256;73296;-83
2023/03/09 03:04:40;;;;;;;8.70;5.20;;;;;;;9.48;55.28;99648.19;107237;1245;71722;-82
2023/03/09 03:07:08;;;;;;;7.30;4.70;;;;;;;9.44;55.16;99649.37;107186;1256;69941;-82
2023/03/09 03:09:38;;;;;;;8.20;5.00;;;;;;;9.40;55.39;99641.85;107379;1251;63774;-82
2023/03/09 03:12:09;;;;;;;7.70;5.40;;;;;;;9.38;55.17;99638.75;107366;1251;58977;-82
2023/03/09 03:14:38;;;;;;;8.20;5.40;;;;;;;9.31;55.65;99640.37;107260;1243;61110;-82
2023/03/09 03:17:07;;;;;;;8.90;5.80;;;;;;;9.25;55.54;99641.69;107139;1246;62583;-84
2023/03/09 03:19:37;;;;;;;8.70;5.90;;;;;;;9.25;55.31;99643.27;107107;1253;61593;-80
2023/03/09 03:22:06;;;;;;;9.70;5.80;;;;;;;9.25;55.53;99643.09;107076;1245;69822;-82
2023/03/09 03:24:39;;;;;;;8.50;5.00;;;;;;;9.21;55.38;99640.69;107082;1245;74345;-85
2023/03/09 03:27:10;;;;;;;9.50;5.20;;;;;;;9.27;55.40;99640.49;107213;1245;61143;-82
2023/03/09 03:29:38;;;;;;;12.50;5.50;;;;;;;9.24;55.26;99645.94;107059;1252;61639;-81
2023/03/09 03:32:08;;;;;;;9.10;5.20;;;;;;;9.20;55.34;99645.48;107137;1244;73498;-81
2023/03/09 03:34:37;;;;;;;9.80;5.30;;;;;;;9.18;55.41;99640.55;107092;1244;72765;-79
2023/03/09 03:37:08;;;;;;;8.90;5.30;;;;;;;9.17;55.21;99630.20;107413;1251;59999;-80
2023/03/09 03:39:43;;;;;;;10.10;4.90;;;;;;;9.22;55.28;99625.45;107774;1248;62475;-81
2023/03/09 03:42:12;;;;;;;9.30;4.80;;;;;;;9.33;54.90;99622.86;107958;1246;58945;-80
2023/03/09 03:44:42;;;;;;;7.50;4.90;;;;;;;9.39;54.61;99611.39;108063;1243;60311;-81
2023/03/09 03:47:11;;;;;;;8.30;4.40;;;;;;;9.38;54.74;99605.56;108336;1244;62667;-81
2023/03/09 03:49:40;;;;;;;6.50;4.90;;;;;;;9.35;54.79;99610.69;107689;1245;62054;-81
2023/03/09 03:52:11;;;;;;;9.90;5.30;;;;;;;9.30;54.97;99609.02;107638;1245;60063;-82
2023/03/09 03:54:40;;;;;;;7.20;4.80;;;;;;;9.29;54.99;99608.90;107560;1244;73013;-82
2023/03/09 03:57:09;;;;;;;9.00;5.40;;;;;;;9.34;54.34;99613.34;107130;1244;61621;-84
2023/03/09 03:59:38;;;;;;;8.40;5.30;;;;;;;9.36;54.49;99610.96;107300;1244;58994;-83
2023/03/09 04:02:07;;;;;;;9.20;5.10;;;;;;;9.38;54.35;99608.98;107160;1247;73509;-82
2023/03/09 04:04:36;;;;;;;7.30;5.90;;;;;;;9.37;54.57;99606.31;107264;1244;62036;-86
2023/03/09 04:07:08;;;;;;;9.00;5.30;;;;;;;9.30;54.87;99603.77;107291;1251;59915;-85
2023/03/09 04:09:38;;;;;;;8.60;5.60;;;;;;;9.24;55.27;99602.86;107409;1244;73022;-84
2023/03/09 04:12:08;;;;;;;9.00;5.30;;;;;;;9.25;54.70;99604.86;107187;1245;60914;-84
2023/03/09 04:14:39;;;;;;;8.00;5.50;;;;;;;9.25;54.59;99605.27;107210;1246;59171;-87
2023/03/09 04:17:09;;;;;;;8.20;5.30;;;;;;;9.25;54.62;99608.71;107337;1255;72857;-87
2023/03/09 04:19:39;;;;;;;8.50;5.30;;;;;;;9.26;54.63;99605.70;107369;1244;71820;-85
2023/03/09 04:22:10;;;;;;;7.80;5.50;;;;;;;9.29;54.53;99609.77;107222;1245;59148;-86
2023/03/09 04:24:39;;;;;;;8.20;4.80;;;;;;;9.26;54.73;99608.42;107438;1244;73483;-86
2023/03/09 04:27:08;;;;;;;9.10;5.50;;;;;;;9.25;54.34;99609.98;107422;1245;61585;-84
2023/03/09 04:29:43;;;;;;;8.40;5.60;;;;;;;9.29;54.52;99608.76;107215;1245;59002;-86
2023/03/09 04:32:14;;;;;;;12.20;6.20;;;;;;;9.23;54.68;99609.56;107207;1256;62195;-86
2023/03/09 04:34:44;;;;;;;11.40;7.00;;;;;;;9.16;54.92;99610.31;107332;1244;71381;-85
2023/03/09 04:37:13;;;;;;;12.90;8.30;;;;;;;9.06;55.52;99605.83;107442;1244;70708;-84
2023/03/09 04:39:43;;;;;;;11.20;7.50;;;;;;;8.93;55.99;99600.00;107613;1243;64112;-85
2023/03/09 04:42:13;;;;;;;12.70;7.00;;;;;;;8.79;56.13;99599.88;107474;1243;61753;-86
2023/03/09 04:44:42;;;;;;;11.20;7.60;;;;;;;8.66;57.36;99602.02;107443;1244;60836;-84
2023/03/09 04:47:15;;;;;;;17.60;10.40;;;;;;;8.53;57.36;99601.30;107412;1245;63326;-88
2023/03/09 04:49:58;;;;;;;13.00;7.70;;;;;;;8.49;57.20;99603.54;107356;1248;73417;-88
2023/03/09 04:52:29;;;;;;;12.40;6.80;;;;;;;8.48;56.98;99612.10;107447;1246;60322;-85
2023/03/09 04:54:58;;;;;;;9.50;6.10;;;;;;;8.49;56.85;99612.44;107544;1245;62327;-85
2023/03/09 04:57:27;;;;;;;7.90;5.40;;;;;;;8.51;56.92;99613.66;107346;1247;59017;-81
2023/03/09 04:59:57;;;;;;;10.90;7.80;;;;;;;8.62;56.63;99611.70;107536;1244;60412;-83
2023/03/09 05:02:28;;;;;;;15.40;7.20;;;;;;;8.58;57.66;99609.11;107526;1242;74302;-87
2023/03/09 05:04:57;;;;;;;15.50;6.70;;;;;;;8.53;57.36;99610.52;107553;1248;61436;-89
2023/03/09 05:07:26;;;;;;;7.20;5.50;;;;;;;8.53;57.11;99612.11;107408;1248;70481;-81
2023/03/09 05:09:56;;;;;;;16.80;7.50;;;;;;;8.65;56.97;99617.91;107479;1251;73833;-81
2023/03/09 05:12:30;;;;;;;11.40;7.30;;;;;;;8.65;57.12;99623.42;107191;1241;61297;-79
2023/03/09 05:15:01;;;;;;;8.00;5.30;;;;;;;8.65;57.11;99624.49;107515;1241;58854;-81
2023/03/09 05:17:31;;;;;;;7.80;4.60;;;;;;;8.75;56.75;99617.42;107368;1255;62168;-73
2023/03/09 05:20:01;;;;;;;9.40;4.80;;;;;;;9.00;55.43;99615.70;107321;1247;61562;-80
2023/03/09 05:22:30;;;;;;;9.30;4.10;;;;;;;9.31;54.49;99614.34;109631;1244;59282;-79
2023/03/09 05:24:59;;;;;;;5.40;3.50;;;;;;;9.54;54.06;99613.74;109617;1245;63286;-77
2023/03/09 05:27:28;;;;;;;7.70;4.40;;;;;;;9.72;53.35;99612.54;109626;1244;60385;-80
2023/03/09 05:29:57;;;;;;;8.00;4.40;;;;;;;9.83;52.97;99614.73;109600;1245;61561;-80
2023/03/09 05:32:26;;;;;;;8.50;4.70;;;;;;;10.00;52.34;99622.13;109632;1241;74278;-85
2023/03/09 05:34:55;;;;;;;7.50;5.40;;;;;;;10.07;52.29;99617.35;109375;1241;390239;-82
2023/03/09 05:37:24;;;;;;;8.10;5.10;;;;;;;10.14;52.52;99617.61;109662;1241;71190;-82
2023/03/09 05:39:54;;;;;;;10.50;5.30;;;;;;;10.17;52.34;99620.31;109627;1241;73225;-81
2023/03/09 05:42:23;;;;;;;9.40;5.00;;;;;;;10.27;51.99;99614.89;109624;1244;59262;-84
2023/03/09 05:44:52;;;;;;;8.00;4.60;;;;;;;10.39;51.75;99614.91;109679;1242;57390;-82
2023/03/09 05:47:21;;;;;;;10.50;5.00;;;;;;;10.48;52.08;99617.77;109717;1244;62947;-81
2023/03/09 05:49:50;;;;;;;10.70;5.20;;;;;;;10.55;51.75;99615.55;109732;1241;61447;-79
2023/03/09 05:52:20;;;;;;;7.60;5.00;;;;;;;10.64;51.89;99615.13;109787;1241;70373;-82
2023/03/09 05:54:49;;;;;;;8.70;5.10;;;;;;;10.65;51.77;99610.67;109638;1241;74214;-82
2023/03/09 05:57:18;;;;;;;12.10;5.30;;;;;;;10.70;51.79;99602.37;109549;1244;57164;-84
2023/03/09 05:59:50;;;;;;;8.60;5.20;;;;;;;10.75;52.12;99601.48;109592;1241;57660;-82
2023/03/09 06:02:19;;;;;;;9.50;5.20;;;;;;;10.82;52.36;99600.71;109611;1241;65180;-83
2023/03/09 06:04:51;;;;;;;9.30;6.20;;;;;;;10.82;50.87;99592.84;109625;1241;72215;-81
2023/03/09 06:07:20;;;;;;;9.00;5.50;;;;;;;10.91;51.04;99599.75;109527;1241;60401;-80
2023/03/09 06:09:50;;;;;;;10.90;5.90;;;;;;;10.97;51.51;99600.39;109612;1241;73388;-80
2023/03/09 06:12:22;;;;;;;18.30;6.60;;;;;;;11.02;51.39;99600.16;109589;1244;57199;-84
2023/03/09 06:14:52;;;;;;;15.60;6.40;;;;;;;11.04;50.62;99606.40;109639;1242;57223;-82
2023/03/09 06:17:22;;;;;;;12.80;6.20;;;;;;;11.08;50.39;99599.20;109711;1241;70744;-80
2023/03/09 06:19:53;;;;;;;9.40;5.60;;;;;;;11.18;50.22;99594.52;109692;1241;60606;-82
2023/03/09 06:22:22;;;;;;;12.20;6.00;;;;;;;11.33;50.98;99591.52;109580;1241;59579;-81
2023/03/09 06:24:51;;;;;;;14.00;6.20;;;;;;;11.47;50.47;99586.21;109705;1241;63409;-81
2023/03/09 06:27:20;;;;;;;14.00;6.20;;;;;;;11.60;50.06;99583.42;109684;1243;57199;-81
2023/03/09 06:29:49;;;;;;;9.00;4.80;;;;;;;11.74;48.71;99574.27;109728;1241;57172;-79
2023/03/09 06:32:18;;;;;;;10.10;5.30;;;;;;;11.92;49.39;99565.51;109602;1241;63040;-80
2023/03/09 06:34:47;;;;;;;7.00;3.60;;;;;;;12.09;49.61;99565.52;109568;1241;61679;-81
2023/03/09 06:37:16;;;;;;;15.40;5.30;;;;;;;12.33;48.10;99570.49;109485;1241;61584;-81
2023/03/09 06:39:45;;;;;;;6.70;3.50;;;;;;;12.61;47.15;99569.44;109530;1241;74317;-83
2023/03/09 06:42:14;;;;;;;5.30;3.50;;;;;;;12.87;46.54;99570.41;109591;1241;60082;-84
2023/03/09 06:44:46;;;;;;;8.80;3.60;;;;;;;13.08;45.84;99574.95;109653;1241;60720;-82
2023/03/09 06:47:15;;;;;;;6.40;3.80;;;;;;;13.32;45.06;99578.23;109634;1241;73465;-84
2023/03/09 06:49:47;;;;;;;8.00;5.00;;;;;;;13.47;44.92;99576.08;109776;1242;61285;-80
2023/03/09 06:52:17;;;;;;;10.70;5.00;;;;;;;13.70;44.37;99578.20;109528;1241;59296;-81
2023/03/09 06:54:46;;;;;;;10.90;4.70;;;;;;;13.83;44.11;99576.88;109660;1241;63368;-84
2023/03/09 06:57:18;;;;;;;10.30;4.00;;;;;;;13.88;43.97;99571.98;109684;1244;60380;-84
2023/03/09 06:59:48;;;;;;;7.10;4.00;;;;;;;13.88;43.97;99572.33;109477;1241;57264;-82
2023/03/09 07:02:17;;;;;;;7.60;3.50;;;;;;;13.96;43.75;99575.55;109434;1241;62956;-82
2023/03/09 07:04:46;;;;;;;6.20;3.50;;;;;;;14.05;43.33;99567.71;109737;1241;61648;-83
2023/03/09 07:07:15;;;;;;;13.00;4.30;;;;;;;14.10;43.19;99570.20;109622;1241;69150;-82
2023/03/09 07:09:44;;;;;;;6.30;3.40;;;;;;;14.12;43.32;99576.63;109718;1242;73634;-82
2023/03/09 07:12:13;;;;;;;6.70;3.50;;;;;;;14.31;42.69;99577.06;109695;1241;60749;-83
2023/03/09 07:14:41;;;;;;;7.60;3.10;;;;;;;14.37;42.58;99576.25;109734;1241;61534;-85
2023/03/09 07:17:13;;;;;;;8.50;3.60;;;;;;;14.45;42.27;99576.34;109633;1241;63602;-85
2023/03/09 07:19:42;;;;;;;7.70;3.80;;;;;;;14.42;42.51;99574.50;109470;1241;61860;-83
2023/03/09 07:22:11;;;;;;;7.40;3.70;;;;;;;14.51;42.47;99572.48;109586;1241;59031;-84
2023/03/09 07:24:41;;;;;;;10.80;3.90;;;;;;;14.55;42.62;99572.90;109540;1241;62465;-82
2023/03/09 07:27:10;;;;;;;8.40;4.30;;;;;;;14.62;42.37;99571.49;109319;1245;60643;-82
2023/03/09 07:29:40;;;;;;;9.70;4.30;;;;;;;14.57;42.60;99568.86;109594;1241;57686;-83
2023/03/09 07:32:09;;;;;;;6.90;3.80;;;;;;;14.68;42.42;99571.13;109625;1242;73518;-79
2023/03/09 07:34:38;;;;;;;9.40;4.00;;;;;;;14.75;42.21;99565.05;109399;1247;71878;-83
2023/03/09 07:37:07;;;;;;;9.20;4.50;;;;;;;14.85;42.29;99567.98;109724;1241;70816;-82
2023/03/09 07:39:36;;;;;;;7.40;4.20;;;;;;;15.00;42.25;99553.02;109529;1241;74153;-82
2023/03/09 07:42:05;;;;;;;11.10;4.20;;;;;;;15.19;41.31;99547.54;109727;1244;61104;-82
2023/03/09 07:44:49;;;;;;;14.80;4.30;;;;;;;15.36;41.03;99543.49;109754;1241;57145;-85
2023/03/09 07:47:18;;;;;;;8.70;4.00;;;;;;;15.51;40.76;99537.22;109580;1241;72751;-83
2023/03/09 07:49:49;;;;;;;9.80;3.50;;;;;;;15.62;40.43;99536.70;109857;1241;62677;-85
2023/03/09 07:52:18;;;;;;;7.30;3.40;;;;;;;15.77;40.22;99538.42;109862;1241;59165;-82
2023/03/09 07:54:50;;;;;;;9.60;3.80;;;;;;;15.85;40.12;99536.72;109651;1241;62445;-84
2023/03/09 07:57:20;;;;;;;5.50;3.20;;;;;;;15.98;39.84;99532.80;109499;1241;60444;-84
2023/03/09 07:59:54;;;;;;;6.90;3.10;;;;;;;16.18;39.41;99530.96;109504;1241;61889;-80
2023/03/09 08:02:23;;;;;;;7.60;3.50;;;;;;;16.35;39.25;99525.59;109613;1241;73875;-84
2023/03/09 08:04:52;;;;;;;5.70;2.90;;;;;;;16.39;39.09;99524.11;109569;1241;72702;-80
2023/03/09 08:07:21;;;;;;;6.30;2.80;;;;;;;16.49;38.83;99519.05;109427;1241;59927;-82
2023/03/09 08:09:50;;;;;;;6.40;3.30;;;;;;;16.52;38.66;99523.80;109548;1241;63279;-81
2023/03/09 08:12:19;;;;;;;5.50;3.10;;;;;;;16.70;38.28;99521.75;109459;1241;57250;-82
2023/03/09 08:14:48;;;;;;;8.10;3.30;;;;;;;16.82;37.92;99512.59;109454;1241;57232;-86
2023/03/09 08:17:18;;;;;;;5.10;2.80;;;;;;;16.87;38.08;99511.62;109457;1241;64458;-85
2023/03/09 08:19:48;;;;;;;7.40;3.10;;;;;;;16.94;37.80;99503.92;109273;1241;71196;-81
2023/03/09 08:22:16;;;;;;;9.40;2.60;;;;;;;17.01;37.86;99508.69;109433;1241;70933;-83
2023/03/09 08:24:45;;;;;;;7.80;2.60;;;;;;;17.25;37.25;99506.16;109607;1241;74113;-82
2023/03/09 08:27:14;;;;;;;7.30;3.10;;;;;;;17.31;36.59;99503.98;109708;1242;57195;-82
2023/03/09 08:29:43;;;;;;;6.40;2.70;;;;;;;17.22;36.82;99498.37;109735;1241;57678;-85
2023/03/09 08:32:12;;;;;;;8.00;2.80;;;;;;;17.41;36.87;99494.19;109749;1241;62955;-82
2023/03/09 08:34:41;;;;;;;7.70;3.10;;;;;;;17.69;36.00;99484.65;109669;1241;72082;-81
2023/03/09 08:37:10;;;;;;;5.30;2.40;;;;;;;17.63;36.43;99481.27;109545;1241;60571;-83
2023/03/09 08:39:39;;;;;;;8.20;3.10;;;;;;;17.77;36.18;99476.39;109466;1241;64085;-80
2023/03/09 08:42:08;;;;;;;7.10;2.90;;;;;;;17.83;35.93;99478.73;109423;1244;59767;-82
2023/03/09 08:44:38;;;;;;;12.50;2.90;;;;;;;17.70;35.91;99483.22;109471;1241;61711;-80
2023/03/09 08:47:07;;;;;;;4.50;2.40;;;;;;;17.65;35.87;99482.09;109357;1241;74326;-81
2023/03/09 08:49:39;;;;;;;5.40;3.10;;;;;;;17.55;36.03;99473.81;109463;1242;70579;-81
2023/03/09 08:52:09;;;;;;;9.70;2.90;;;;;;;17.49;35.94;99478.08;109498;1241;70523;-81
2023/03/09 08:54:38;;;;;;;5.30;2.60;;;;;;;17.54;36.35;99479.77;109575;1241;74162;-81
2023/03/09 08:57:07;;;;;;;10.40;2.80;;;;;;;17.62;36.12;99477.30;109282;1246;60786;-85
2023/03/09 08:59:36;;;;;;;3.50;2.00;;;;;;;17.69;35.66;99473.83;109382;1241;60627;-81
2023/03/09 09:02:04;;;;;;;4.90;2.50;;;;;;;17.71;35.50;99466.20;109685;1241;64223;-82
2023/03/09 09:04:34;;;;;;;5.90;2.50;;;;;;;17.71;35.23;99461.30;109634;1241;72074;-81
2023/03/09 09:07:03;;;;;;;6.40;2.30;;;;;;;17.61;35.37;99465.18;109561;1241;62023;-82
2023/03/09 09:09:33;;;;;;;4.80;2.20;;;;;;;17.59;35.37;99466.70;109485;1241;73632;-80
2023/03/09 09:12:02;;;;;;;3.90;2.20;;;;;;;17.52;35.38;99458.02;109454;1244;61795;-82
2023/03/09 09:14:31;;;;;;;10.70;2.70;;;;;;;17.54;35.52;99457.70;109482;1241;62092;-81
2023/03/09 09:17:00;;;;;;;7.60;2.60;;;;;;;17.57;35.56;99455.46;109367;1246;62373;-81
2023/03/09 09:19:30;;;;;;;6.90;2.20;;;;;;;17.64;35.50;99456.69;109532;1241;72191;-82
2023/03/09 09:21:59;;;;;;;6.90;2.30;;;;;;;17.78;34.82;99451.05;109745;1241;70842;-78
2023/03/09 09:24:40;;;;;;;8.50;2.50;;;;;;;17.81;34.95;99461.86;109642;1241;62950;-82
2023/03/09 09:27:10;;;;;;;4.30;2.30;;;;;;;17.82;34.74;99462.42;109690;1242;57630;-84
2023/03/09 09:29:39;;;;;;;4.60;2.20;;;;;;;17.84;34.77;99471.42;109728;1241;57679;-81
2023/03/09 09:32:09;;;;;;;13.50;2.80;;;;;;;17.85;35.22;99465.30;109811;1241;72765;-83
2023/03/09 09:34:38;;;;;;;4.20;2.30;;;;;;;18.05;35.24;99464.73;109790;1241;61606;-82
2023/03/09 09:37:07;;;;;;;7.40;2.50;;;;;;;18.20;34.82;99463.44;109670;1241;59952;-80
2023/03/09 09:39:37;;;;;;;3.90;1.60;;;;;;;18.40;34.44;99461.57;109775;1242;62417;-86
2023/03/09 09:42:29;;;;;;;5.90;2.40;;;;;;;18.60;33.28;99461.11;109666;1244;60397;-84
2023/03/09 09:44:59;;;;;;;6.60;2.10;;;;;;;18.44;34.08;99459.16;109767;1241;61562;-83
2023/03/09 09:47:32;;;;;;;4.10;2.10;;;;;;;18.42;33.51;99454.02;109578;1245;62904;-83
2023/03/09 09:50:02;;;;;;;5.80;2.40;;;;;;;18.35;33.77;99463.16;109807;1241;71379;-81
2023/03/09 09:52:42;;;;;;;5.90;2.80;;;;;;;18.34;34.18;99457.50;109558;1241;69913;-82
2023/03/09 09:55:22;;;;;;;17.30;1.80;;;;;;;18.50;33.74;99462.33;109783;1241;63893;-80
2023/03/09 09:58:32;;;;;;;7.90;2.60;;;;;;;18.61;33.51;99459.73;109711;1242;61870;-86
2023/03/09 10:01:12;;;;;;;8.70;2.30;;;;;;;18.74;33.46;99461.75;109581;1241;60892;-84
2023/03/09 10:03:48;;;;;;;7.20;2.50;;;;;;;18.76;33.15;99455.79;109656;1241;62807;-84
2023/03/09 10:06:24;;;;;;;5.60;2.50;;;;;;;18.86;32.81;99444.02;109644;1241;70668;-81
2023/03/09 10:09:06;;;;;;;5.20;1.60;;;;;;;19.06;32.80;99438.48;109526;1245;59580;-80
2023/03/09 10:11:52;;;;;;;4.30;2.00;;;;;;;19.05;32.35;99433.61;109543;1241;63310;-81
2023/03/09 10:14:32;;;;;;;5.00;1.90;;;;;;;18.92;32.76;99440.66;109685;1242;61336;-80
2023/03/09 10:17:20;;;;;;;3.90;1.70;;;;;;;18.92;32.73;99435.40;109667;1244;57375;-81
2023/03/09 10:19:50;;;;;;;3.00;1.60;;;;;;;19.00;32.84;99443.60;109742;1241;71716;-81
2023/03/09 10:22:25;;;;;;;6.50;1.90;;;;;;;19.02;32.60;99441.82;109688;1244;61212;-83
2023/03/09 10:24:56;;;;;;;3.00;1.50;;;;;;;19.08;32.80;99432.23;109706;1241;70429;-81
2023/03/09 10:27:41;;;;;;;3.80;2.00;;;;;;;19.23;32.61;99434.70;109509;1241;74019;-83
2023/03/09 10:30:10;;;;;;;5.50;2.20;;;;;;;19.27;32.84;99427.02;109644;1242;60815;-81
2023/03/09 10:32:40;;;;;;;4.10;2.00;;;;;;;19.43;32.33;99413.42;109744;1241;57181;-81
2023/03/09 10:35:35;;;;;;;3.60;1.80;;;;;;;19.56;32.15;99415.07;109736;1244;62315;-79
2023/03/09 10:38:04;;;;;;;4.10;2.00;;;;;;;19.56;32.21;99412.73;109492;1241;70711;-80
2023/03/09 10:40:51;;;;;;;19.00;3.60;;;;;;;19.84;32.26;99408.40;109626;1244;59720;-82
2023/03/09 10:43:29;;;;;;;7.60;2.10;;;;;;;19.99;32.05;99400.70;109491;1244;73923;-82
2023/03/09 10:46:20;;;;;;;7.90;2.70;;;;;;;20.07;31.51;99395.60;109745;1241;57806;-85
2023/03/09 10:49:09;;;;;;;7.40;2.90;;;;;;;20.15;31.23;99394.38;109758;1241;61910;-84
2023/03/09 10:51:45;;;;;;;15.20;2.80;;;;;;;19.95;31.76;99397.23;109690;1241;72075;-83
2023/03/09 10:54:14;;;;;;;6.10;2.80;;;;;;;19.74;31.86;99393.59;109632;1244;62092;-83
2023/03/09 10:56:46;;;;;;;8.30;2.80;;;;;;;19.69;32.02;99404.11;109483;1241;70454;-82
2023/03/09 10:59:21;;;;;;;4.60;2.00;;;;;;;19.70;31.76;99396.48;109463;1241;74425;-83
2023/03/09 11:01:54;;;;;;;14.50;2.90;;;;;;;19.42;31.99;99395.86;109478;1244;57761;-84
2023/03/09 11:04:23;;;;;;;7.60;2.30;;;;;;;19.19;32.45;99396.61;109629;1244;57716;-82
2023/03/09 11:06:57;;;;;;;6.00;3.30;;;;;;;19.07;32.98;99400.28;109720;1242;62940;-84
2023/03/09 11:09:45;;;;;;;9.10;3.30;;;;;;;18.90;33.27;99390.17;109604;1244;61647;-85
2023/03/09 11:12:36;;;;;;;6.10;2.40;;;;;;;19.07;33.15;99391.75;109739;1241;70509;-86
2023/03/09 11:15:11;;;;;;;5.20;2.60;;;;;;;19.36;33.08;99378.45;109507;1244;63582;-83
2023/03/09 11:17:45;;;;;;;7.50;2.60;;;;;;;19.41;33.49;99369.66;109608;1244;59966;-83
2023/03/09 11:20:34;;;;;;;5.40;2.30;;;;;;;19.57;32.59;99370.89;109571;1241;61776;-84
2023/03/09 11:23:17;;;;;;;6.80;2.30;;;;;;;19.16;32.96;99373.38;109563;1243;73831;-87
2023/03/09 11:26:15;;;;;;;8.60;2.90;;;;;;;19.10;33.36;99365.92;109583;1243;62093;-83
2023/03/09 11:28:47;;;;;;;12.50;3.40;;;;;;;18.79;34.09;99369.36;109454;1244;60098;-84
2023/03/09 11:31:24;;;;;;;9.90;2.40;;;;;;;18.61;34.34;99367.34;109562;1242;63040;-85
2023/03/09 11:33:57;;;;;;;23.00;3.50;;;;;;;18.73;34.20;99365.42;109463;1244;60392;-83
2023/03/09 11:37:09;;;;;;;6.50;2.90;;;;;;;18.58;34.60;99365.58;109445;1244;57738;-83
2023/03/09 11:40:05;;;;;;;4.60;2.30;;;;;;;18.52;34.72;99365.00;109349;1241;73499;-83
2023/03/09 11:42:42;;;;;;;12.90;3.30;;;;;;;18.41;34.57;99365.09;109449;1244;72489;-82
2023/03/09 11:45:25;;;;;;;6.10;3.20;;;;;;;18.35;34.80;99370.96;109358;1246;59726;-87
2023/03/09 11:48:05;;;;;;;13.80;3.30;;;;;;;18.47;34.65;99354.08;109485;1241;73041;-86
2023/03/09 11:50:50;;;;;;;11.20;3.80;;;;;;;18.67;34.65;99354.33;109601;1241;61806;-82